Time;durP1;ratioP1;P1;durP2;ratioP2;P2;SDS_P1;SDS_P2;PMS_P1;PMS_P2;Temp;Humidity;BMP_temperature;BMP_pressure;BME280_temperature;BME280_humidity;BME280_pressure;Samples;Min_cycle;Max_cycle;Signal;HPM_P1;HPM_P2
2023/09/15 00:01:39;;;;;;;4.20;3.80;;;21.40;84.90;;;;;;5063253;28;20209;-68
2023/09/15 00:04:09;;;;;;;4.20;3.80;;;21.50;85.00;;;;;;5081764;28;20459;-68
2023/09/15 00:06:36;;;;;;;4.60;4.20;;;21.40;84.90;;;;;;5081910;28;20945;-68
2023/09/15 00:09:14;;;;;;;4.83;3.90;;;21.40;84.90;;;;;;5080930;28;21270;-68
2023/09/15 00:11:43;;;;;;;3.80;3.40;;;21.40;84.90;;;;;;5046679;28;20415;-68
2023/09/15 00:14:10;;;;;;;3.50;3.20;;;21.40;84.90;;;;;;5030191;28;20922;-67
2023/09/15 00:16:44;;;;;;;4.20;3.53;;;21.40;84.80;;;;;;5063616;28;20456;-68
2023/09/15 00:19:15;;;;;;;4.20;3.90;;;21.40;84.80;;;;;;5081410;28;20426;-67
2023/09/15 00:21:43;;;;;;;3.83;3.40;;;21.30;84.80;;;;;;5029215;28;20513;-68
2023/09/15 00:24:12;;;;;;;3.80;3.50;;;21.30;84.60;;;;;;5080675;28;20448;-67
2023/09/15 00:26:38;;;;;;;4.83;4.17;;;21.30;84.50;;;;;;5062487;28;20427;-67
2023/09/15 00:29:04;;;;;;;3.27;3.03;;;21.30;84.50;;;;;;5045479;28;20467;-68
2023/09/15 00:31:34;;;;;;;3.67;3.37;;;21.30;84.60;;;;;;5045537;28;20435;-67
2023/09/15 00:34:01;;;;;;;4.30;3.90;;;21.30;84.50;;;;;;5062020;28;20420;-68
2023/09/15 00:36:35;;;;;;;5.30;3.60;;;21.30;84.50;;;;;;5061947;28;20947;-68
2023/09/15 00:39:02;;;;;;;4.60;3.60;;;21.30;84.50;;;;;;5062773;28;20488;-67
2023/09/15 00:41:30;;;;;;;4.83;3.77;;;21.30;84.40;;;;;;5062338;28;20596;-68
2023/09/15 00:43:57;;;;;;;5.30;3.60;;;21.30;84.40;;;;;;5061973;28;20412;-67
2023/09/15 00:46:23;;;;;;;5.13;3.60;;;21.20;84.30;;;;;;5045709;28;20585;-68
2023/09/15 00:48:51;;;;;;;4.20;3.80;;;21.20;84.40;;;;;;5045911;28;20424;-68
2023/09/15 00:51:22;;;;;;;4.13;3.80;;;21.20;84.30;;;;;;5046233;28;21200;-68
2023/09/15 00:53:51;;;;;;;3.90;3.60;;;21.20;84.30;;;;;;5045449;28;20503;-67
2023/09/15 00:56:20;;;;;;;5.23;3.70;;;21.20;84.30;;;;;;5061816;28;20422;-68
2023/09/15 00:58:46;;;;;;;3.47;3.10;;;21.20;84.20;;;;;;5045414;28;20432;-67
2023/09/15 01:01:14;;;;;;;4.43;3.53;;;21.20;84.20;;;;;;5045709;28;20509;-67
2023/09/15 01:03:42;;;;;;;3.57;3.37;;;21.20;84.20;;;;;;5046122;28;20458;-69
2023/09/15 01:06:13;;;;;;;5.20;3.43;;;21.20;84.10;;;;;;5080795;28;20419;-67
2023/09/15 01:08:41;;;;;;;3.93;3.17;;;21.20;84.10;;;;;;5081388;28;20417;-68
2023/09/15 01:11:07;;;;;;;3.93;3.60;;;21.10;83.90;;;;;;5080260;28;20425;-68
2023/09/15 01:13:34;;;;;;;3.70;3.40;;;21.10;84.00;;;;;;5045726;28;20543;-68
2023/09/15 01:16:06;;;;;;;3.70;3.40;;;21.10;83.80;;;;;;5061936;28;21249;-68
2023/09/15 01:18:50;;;;;;;3.80;3.50;;;21.10;83.90;;;;;;5062207;28;21389;-67
2023/09/15 01:21:31;;;;;;;3.90;3.50;;;21.10;83.80;;;;;;5028971;28;20475;-68
2023/09/15 01:24:19;;;;;;;3.90;3.60;;;21.10;83.90;;;;;;5062826;28;20410;-67
2023/09/15 01:27:17;;;;;;;3.63;3.37;;;21.00;83.80;;;;;;5046242;28;20841;-67
2023/09/15 01:29:54;;;;;;;4.00;3.70;;;21.00;83.70;;;;;;5062808;28;20969;-68
2023/09/15 01:32:22;;;;;;;3.57;3.27;;;21.00;83.90;;;;;;5080870;28;20419;-68
2023/09/15 01:34:53;;;;;;;5.23;3.73;;;21.00;83.70;;;;;;5045725;28;20449;-68
2023/09/15 01:37:20;;;;;;;4.00;3.53;;;21.00;83.80;;;;;;5062120;28;20595;-67
2023/09/15 01:39:52;;;;;;;5.93;3.60;;;21.00;83.70;;;;;;5045887;28;20519;-68
2023/09/15 01:42:20;;;;;;;4.03;3.63;;;20.90;83.70;;;;;;5045830;28;20525;-67
2023/09/15 01:44:47;;;;;;;3.13;2.93;;;20.90;83.60;;;;;;5062243;28;20423;-67
2023/09/15 01:47:20;;;;;;;4.70;3.47;;;20.90;83.50;;;;;;5028656;28;20435;-68
2023/09/15 01:49:52;;;;;;;4.77;3.30;;;20.90;83.50;;;;;;5045025;28;20558;-68
2023/09/15 01:52:22;;;;;;;4.87;3.33;;;20.90;83.50;;;;;;5061238;28;20418;-68
2023/09/15 01:54:49;;;;;;;3.67;3.37;;;20.90;83.60;;;;;;5061478;28;20526;-68
2023/09/15 01:57:15;;;;;;;4.30;3.90;;;20.90;83.50;;;;;;5044591;28;21032;-68
2023/09/15 01:59:42;;;;;;;3.43;3.23;;;20.90;83.50;;;;;;5060979;28;20462;-68
2023/09/15 02:02:08;;;;;;;4.00;3.70;;;20.90;83.40;;;;;;5060940;28;20414;-68
2023/09/15 02:04:35;;;;;;;3.07;2.87;;;20.90;83.50;;;;;;5044946;28;20424;-68
2023/09/15 02:07:01;;;;;;;4.17;3.63;;;20.80;83.50;;;;;;5028413;28;20484;-68
2023/09/15 02:09:34;;;;;;;3.90;3.60;;;20.80;83.40;;;;;;5062085;28;20443;-67
2023/09/15 02:12:03;;;;;;;3.30;3.10;;;20.80;83.30;;;;;;5061166;28;20419;-67
2023/09/15 02:14:30;;;;;;;3.33;3.03;;;20.80;83.20;;;;;;5061518;28;20963;-68
2023/09/15 02:16:56;;;;;;;3.50;3.20;;;20.80;83.30;;;;;;5047811;28;20787;-67
2023/09/15 02:19:24;;;;;;;3.60;3.27;;;20.80;83.30;;;;;;5065041;28;20438;-68
2023/09/15 02:21:53;;;;;;;3.60;3.30;;;20.80;83.30;;;;;;5065340;28;20419;-68
2023/09/15 02:24:22;;;;;;;3.97;3.10;;;20.70;83.20;;;;;;5031643;28;20489;-68
2023/09/15 02:26:47;;;;;;;3.43;3.13;;;20.70;83.20;;;;;;5047820;28;20469;-67
2023/09/15 02:29:16;;;;;;;3.63;3.33;;;20.70;83.20;;;;;;5065121;28;20454;-68
2023/09/15 02:31:45;;;;;;;3.90;3.17;;;20.70;83.20;;;;;;5064968;28;20406;-68
2023/09/15 02:34:12;;;;;;;4.40;3.27;;;20.70;83.10;;;;;;5064302;28;20464;-67
2023/09/15 02:36:38;;;;;;;5.73;3.40;;;20.70;83.20;;;;;;5047873;28;21185;-68
2023/09/15 02:39:05;;;;;;;3.60;3.30;;;20.70;83.20;;;;;;5082990;28;20550;-68
2023/09/15 02:41:31;;;;;;;4.43;3.37;;;20.70;83.20;;;;;;5064577;28;20884;-67
2023/09/15 02:43:59;;;;;;;4.10;3.70;;;20.60;83.00;;;;;;5047357;28;20414;-67
2023/09/15 02:46:27;;;;;;;5.53;3.43;;;20.60;83.00;;;;;;5064070;28;21353;-68
2023/09/15 02:48:54;;;;;;;4.13;3.20;;;20.60;83.10;;;;;;5064059;28;20416;-67
2023/09/15 02:51:24;;;;;;;4.70;3.40;;;20.60;83.10;;;;;;5048363;28;21078;-67
2023/09/15 02:53:53;;;;;;;4.60;3.50;;;20.60;83.00;;;;;;5064853;28;20418;-68
2023/09/15 02:56:23;;;;;;;4.37;3.80;;;20.60;83.00;;;;;;5082671;28;20434;-67
2023/09/15 02:58:50;;;;;;;3.40;3.20;;;20.60;83.00;;;;;;5047763;28;20419;-67
2023/09/15 03:01:17;;;;;;;3.70;3.40;;;20.60;83.00;;;;;;5064716;28;20565;-68
2023/09/15 03:03:48;;;;;;;3.50;3.20;;;20.50;82.90;;;;;;5048573;28;20973;-68
2023/09/15 03:06:17;;;;;;;4.27;3.23;;;20.50;82.90;;;;;;5031159;28;20881;-68
2023/09/15 03:08:44;;;;;;;4.10;3.70;;;20.50;82.80;;;;;;5047261;28;20419;-68
2023/09/15 03:11:13;;;;;;;4.30;3.50;;;20.50;82.80;;;;;;5063897;28;20419;-68
2023/09/15 03:13:40;;;;;;;3.60;3.30;;;20.50;82.80;;;;;;5064276;28;20952;-68
2023/09/15 03:16:13;;;;;;;3.30;3.00;;;20.50;82.70;;;;;;5047150;28;20905;-67
2023/09/15 03:18:46;;;;;;;3.83;3.47;;;20.50;82.80;;;;;;5063933;28;20817;-67
2023/09/15 03:21:16;;;;;;;3.93;3.53;;;20.40;82.60;;;;;;5046742;28;20828;-68
2023/09/15 03:23:42;;;;;;;3.70;3.40;;;20.40;82.60;;;;;;5047591;28;20510;-67
2023/09/15 03:26:08;;;;;;;3.40;3.10;;;20.40;82.60;;;;;;5064070;28;21264;-68
2023/09/15 03:28:38;;;;;;;4.20;3.90;;;20.40;82.60;;;;;;5063769;28;20454;-67
2023/09/15 03:31:04;;;;;;;3.93;3.63;;;20.40;82.50;;;;;;5063935;28;20814;-67
2023/09/15 03:33:31;;;;;;;3.60;3.33;;;20.40;82.60;;;;;;5064931;28;20417;-67
2023/09/15 03:36:00;;;;;;;3.97;3.67;;;20.40;82.40;;;;;;5048561;28;20438;-67
2023/09/15 03:38:28;;;;;;;3.97;3.67;;;20.30;82.30;;;;;;5081692;28;20434;-68
2023/09/15 03:40:55;;;;;;;4.00;3.43;;;20.40;82.50;;;;;;5046517;28;20562;-67
2023/09/15 03:43:22;;;;;;;3.80;3.50;;;20.30;82.30;;;;;;5063160;28;20423;-68
2023/09/15 03:45:48;;;;;;;3.50;3.30;;;20.30;82.30;;;;;;5047074;28;20918;-68
2023/09/15 03:48:15;;;;;;;3.40;3.10;;;20.30;82.30;;;;;;5064055;28;20417;-67
2023/09/15 03:50:42;;;;;;;3.80;3.50;;;20.30;82.30;;;;;;5047095;28;21051;-67
2023/09/15 03:53:08;;;;;;;3.30;3.00;;;20.30;82.40;;;;;;5083231;28;20420;-67
2023/09/15 03:55:35;;;;;;;3.60;3.27;;;20.30;82.30;;;;;;5064811;28;20476;-67
2023/09/15 03:58:07;;;;;;;3.90;3.20;;;20.30;82.30;;;;;;5048218;28;20419;-68
2023/09/15 04:00:33;;;;;;;3.73;3.33;;;20.30;82.40;;;;;;5083034;28;20481;-67
2023/09/15 04:02:59;;;;;;;3.40;3.10;;;20.20;82.30;;;;;;5064498;28;20451;-67
2023/09/15 04:05:26;;;;;;;4.77;3.37;;;20.20;82.30;;;;;;5064561;28;20511;-67
2023/09/15 04:07:56;;;;;;;3.90;3.60;;;20.20;82.30;;;;;;5047596;28;20530;-67
2023/09/15 04:10:23;;;;;;;4.10;3.60;;;20.20;82.20;;;;;;5047812;28;20536;-68
2023/09/15 04:12:51;;;;;;;3.20;3.00;;;20.20;83.10;;;;;;5046776;28;20438;-67
2023/09/15 04:15:20;;;;;;;3.90;3.50;;;20.20;82.20;;;;;;5081271;28;20428;-67
2023/09/15 04:17:48;;;;;;;3.50;3.30;;;20.20;82.20;;;;;;5046949;28;20773;-67
2023/09/15 04:20:16;;;;;;;3.60;3.23;;;20.10;82.10;;;;;;5029846;28;20478;-68
2023/09/15 04:22:43;;;;;;;3.37;3.10;;;20.10;82.20;;;;;;5044493;28;20470;-68
2023/09/15 04:25:14;;;;;;;4.10;3.70;;;20.10;82.10;;;;;;5060320;28;20433;-68
2023/09/15 04:27:40;;;;;;;4.13;3.40;;;20.10;82.10;;;;;;5029168;28;20438;-69
2023/09/15 04:30:07;;;;;;;3.70;3.33;;;20.10;82.20;;;;;;5031095;28;20442;-68
2023/09/15 04:32:42;;;;;;;4.17;3.67;;;20.10;82.10;;;;;;5043174;28;20446;-68
2023/09/15 04:35:11;;;;;;;3.57;3.37;;;20.10;82.20;;;;;;5043185;28;20419;-68
2023/09/15 04:37:37;;;;;;;4.23;3.83;;;20.10;82.20;;;;;;5042149;28;20510;-68
2023/09/15 04:40:06;;;;;;;5.13;4.00;;;20.10;82.20;;;;;;5061137;28;20564;-68
2023/09/15 04:42:40;;;;;;;5.00;3.90;;;20.10;82.20;;;;;;5010434;28;20474;-68
2023/09/15 04:45:12;;;;;;;3.03;2.80;;;20.00;82.00;;;;;;5044000;28;20743;-68
2023/09/15 04:47:40;;;;;;;4.27;3.87;;;20.00;82.00;;;;;;5027125;28;20491;-68
2023/09/15 04:50:17;;;;;;;3.77;3.40;;;20.00;82.00;;;;;;5026935;28;20972;-69
2023/09/15 04:52:43;;;;;;;5.83;4.00;;;20.00;82.00;;;;;;5043624;28;20415;-69
2023/09/15 04:55:09;;;;;;;4.20;3.90;;;20.00;82.10;;;;;;5027271;28;20418;-69
2023/09/15 04:57:36;;;;;;;4.07;3.67;;;19.90;81.90;;;;;;5062135;28;21300;-69
2023/09/15 05:00:11;;;;;;;3.67;3.37;;;19.90;81.90;;;;;;5027318;28;21289;-70
2023/09/15 05:02:45;;;;;;;5.50;3.53;;;19.90;82.00;;;;;;5064694;28;20430;-69
2023/09/15 05:05:14;;;;;;;4.07;3.77;;;19.90;82.00;;;;;;5047088;28;20413;-70
2023/09/15 05:07:43;;;;;;;4.60;3.70;;;19.90;81.90;;;;;;5065337;28;20560;-69
2023/09/15 05:10:10;;;;;;;3.67;3.37;;;19.90;81.90;;;;;;5048627;28;20453;-69
2023/09/15 05:12:36;;;;;;;3.53;3.23;;;19.90;81.90;;;;;;5065159;28;21207;-70
2023/09/15 05:15:03;;;;;;;3.63;3.33;;;19.80;82.00;;;;;;5054148;28;20429;-68
2023/09/15 05:17:32;;;;;;;3.70;3.13;;;19.90;82.00;;;;;;5041399;28;20441;-69
2023/09/15 05:20:01;;;;;;;4.40;3.50;;;19.80;81.90;;;;;;5030540;28;20473;-72
2023/09/15 05:22:31;;;;;;;3.60;3.30;;;19.80;81.90;;;;;;5035316;28;20445;-73
2023/09/15 05:25:04;;;;;;;5.67;3.50;;;19.80;81.90;;;;;;5003583;28;20985;-73
2023/09/15 05:27:31;;;;;;;3.60;3.30;;;19.80;81.90;;;;;;5040085;28;20492;-70
2023/09/15 05:29:58;;;;;;;3.50;3.20;;;19.80;81.90;;;;;;5043653;28;20501;-71
2023/09/15 05:32:27;;;;;;;3.53;3.23;;;19.80;81.80;;;;;;5040262;28;20438;-71
2023/09/15 05:34:53;;;;;;;3.90;3.20;;;19.80;81.90;;;;;;5025298;28;20442;-72
2023/09/15 05:37:19;;;;;;;3.67;3.40;;;19.90;82.00;;;;;;5024870;28;20522;-70
2023/09/15 05:39:45;;;;;;;4.03;3.37;;;19.80;81.90;;;;;;5037522;28;20262;-68
2023/09/15 05:42:14;;;;;;;3.20;3.00;;;19.70;81.90;;;;;;5020139;28;20670;-69
2023/09/15 05:44:42;;;;;;;3.23;2.93;;;19.70;81.80;;;;;;5079239;28;21299;-68
2023/09/15 05:47:13;;;;;;;3.67;3.10;;;19.70;81.80;;;;;;5054733;28;20595;-69
2023/09/15 05:49:39;;;;;;;4.20;3.80;;;19.70;81.80;;;;;;5060632;28;20524;-68
2023/09/15 05:52:05;;;;;;;3.60;3.30;;;19.70;81.90;;;;;;5052369;28;20505;-69
2023/09/15 05:54:36;;;;;;;3.70;3.40;;;19.70;81.80;;;;;;5051902;28;20176;-69
2023/09/15 05:57:02;;;;;;;3.37;3.07;;;19.70;81.90;;;;;;5034739;28;20530;-70
2023/09/15 05:59:28;;;;;;;3.93;3.53;;;19.70;81.90;;;;;;5023077;28;20467;-71
2023/09/15 06:01:57;;;;;;;3.80;3.50;;;19.70;82.00;;;;;;5000580;28;20463;-71
2023/09/15 06:04:23;;;;;;;4.10;3.80;;;19.70;82.00;;;;;;5022075;28;20454;-70
2023/09/15 06:06:49;;;;;;;4.50;3.73;;;19.60;82.00;;;;;;5034174;28;20513;-70
2023/09/15 06:09:15;;;;;;;10.20;4.10;;;19.60;82.00;;;;;;5051668;28;20963;-69
2023/09/15 06:11:44;;;;;;;4.10;3.07;;;19.60;82.10;;;;;;5043986;28;20458;-69
2023/09/15 06:14:12;;;;;;;4.20;3.10;;;19.60;82.00;;;;;;5039616;28;20412;-70
2023/09/15 06:16:43;;;;;;;6.47;3.50;;;19.50;82.30;;;;;;5043352;28;20501;-69
2023/09/15 06:19:12;;;;;;;5.07;4.07;;;19.50;82.40;;;;;;5043553;28;20488;-69
2023/09/15 06:21:40;;;;;;;4.20;3.80;;;19.50;82.50;;;;;;5055665;28;20481;-70
2023/09/15 06:24:08;;;;;;;4.00;3.70;;;19.40;82.50;;;;;;5029909;28;20486;-69
2023/09/15 06:26:36;;;;;;;3.70;3.37;;;19.40;82.50;;;;;;5058609;28;21036;-69
2023/09/15 06:29:05;;;;;;;4.37;3.53;;;19.40;82.70;;;;;;5065434;28;20508;-69
2023/09/15 06:31:31;;;;;;;4.33;3.43;;;19.50;82.80;;;;;;5038067;28;20504;-70
2023/09/15 06:34:00;;;;;;;3.83;3.33;;;19.50;82.90;;;;;;5058327;28;20420;-69
2023/09/15 06:36:26;;;;;;;4.13;3.03;;;19.50;83.00;;;;;;5040629;28;20431;-68
2023/09/15 06:38:52;;;;;;;4.33;3.93;;;19.50;83.00;;;;;;5063124;28;20537;-69
2023/09/15 06:41:18;;;;;;;5.47;3.40;;;19.50;83.10;;;;;;5024125;28;20842;-70
2023/09/15 06:43:47;;;;;;;5.67;3.17;;;19.50;83.20;;;;;;5054664;28;20429;-70
2023/09/15 06:46:15;;;;;;;3.70;3.40;;;19.50;83.20;;;;;;5046516;28;20448;-70
2023/09/15 06:48:43;;;;;;;3.57;3.27;;;19.50;83.30;;;;;;5023566;28;20516;-70
2023/09/15 06:51:09;;;;;;;3.60;3.27;;;19.50;83.40;;;;;;5010049;28;20477;-69
2023/09/15 06:53:37;;;;;;;3.40;3.10;;;19.50;83.40;;;;;;5024593;28;20423;-70
2023/09/15 06:56:06;;;;;;;3.77;3.47;;;19.50;83.50;;;;;;5048836;28;20919;-70
2023/09/15 06:58:34;;;;;;;4.70;2.93;;;19.50;83.50;;;;;;5038779;28;20437;-69
2023/09/15 07:01:04;;;;;;;5.00;3.40;;;19.50;83.60;;;;;;5030816;28;20667;-70
2023/09/15 07:03:34;;;;;;;7.23;2.97;;;19.50;83.60;;;;;;5044424;28;20428;-69
2023/09/15 07:06:01;;;;;;;3.40;3.20;;;19.50;83.70;;;;;;5058369;28;20449;-68
2023/09/15 07:08:32;;;;;;;5.13;3.23;;;19.50;83.60;;;;;;5065020;28;20406;-67
2023/09/15 07:10:59;;;;;;;4.13;3.20;;;19.50;83.70;;;;;;5082522;28;20434;-68
2023/09/15 07:13:25;;;;;;;3.90;3.60;;;19.50;83.80;;;;;;5034164;28;20512;-68
2023/09/15 07:15:51;;;;;;;3.40;3.13;;;19.50;83.80;;;;;;5028089;28;20445;-68
2023/09/15 07:18:17;;;;;;;3.80;3.50;;;19.50;83.90;;;;;;5038926;28;20430;-67
2023/09/15 07:20:48;;;;;;;3.93;2.80;;;19.50;83.90;;;;;;5041309;28;20467;-68
2023/09/15 07:23:14;;;;;;;4.00;3.70;;;19.50;83.90;;;;;;5055631;28;20428;-68
2023/09/15 07:25:43;;;;;;;3.40;3.10;;;19.50;84.00;;;;;;5062211;28;20844;-70
2023/09/15 07:28:09;;;;;;;3.50;3.20;;;19.50;84.00;;;;;;5026049;28;20433;-69
2023/09/15 07:30:38;;;;;;;3.70;3.40;;;19.50;83.90;;;;;;5024058;28;20434;-70
2023/09/15 07:33:05;;;;;;;3.50;3.20;;;19.50;84.00;;;;;;5062061;28;20425;-69
2023/09/15 07:35:37;;;;;;;3.60;3.07;;;19.50;84.00;;;;;;4999609;28;20554;-69
2023/09/15 07:38:04;;;;;;;3.50;3.20;;;19.50;84.00;;;;;;5028529;28;20429;-68
2023/09/15 07:40:32;;;;;;;3.40;3.10;;;19.50;84.10;;;;;;5080496;28;20468;-66
2023/09/15 07:42:59;;;;;;;3.00;2.77;;;19.50;84.10;;;;;;5044007;28;20514;-68
2023/09/15 07:45:26;;;;;;;3.60;3.30;;;19.50;84.10;;;;;;5023223;28;20431;-69
2023/09/15 07:47:52;;;;;;;3.27;2.97;;;19.50;84.10;;;;;;5032537;28;20762;-66
2023/09/15 07:50:18;;;;;;;3.67;3.03;;;19.50;84.20;;;;;;5041055;28;21089;-66
2023/09/15 07:52:48;;;;;;;4.30;3.60;;;19.50;84.10;;;;;;5026221;28;20432;-66
2023/09/15 07:55:14;;;;;;;3.43;3.10;;;19.50;84.10;;;;;;5026016;28;21077;-67
2023/09/15 07:57:40;;;;;;;3.40;3.03;;;19.50;84.20;;;;;;5042584;28;20442;-67
2023/09/15 08:00:10;;;;;;;4.43;3.33;;;19.50;84.20;;;;;;5014220;28;20458;-67
2023/09/15 08:02:39;;;;;;;5.00;3.53;;;19.50;84.20;;;;;;5079331;28;20434;-67
2023/09/15 08:05:06;;;;;;;3.70;3.40;;;19.50;85.00;;;;;;5062067;28;21349;-67
2023/09/15 08:07:32;;;;;;;3.93;3.63;;;19.50;84.20;;;;;;5028536;28;20427;-66
2023/09/15 08:10:06;;;;;;;3.23;3.03;;;19.50;84.30;;;;;;5021744;28;21120;-67
2023/09/15 08:12:32;;;;;;;3.10;2.90;;;19.50;84.30;;;;;;5063284;28;20560;-67
2023/09/15 08:15:01;;;;;;;3.37;2.90;;;19.50;84.20;;;;;;5025839;28;20597;-66
2023/09/15 08:17:27;;;;;;;4.07;3.57;;;19.50;84.30;;;;;;5024083;28;20443;-67
2023/09/15 08:19:54;;;;;;;3.03;2.73;;;19.50;84.40;;;;;;5071850;28;20443;-69
2023/09/15 08:22:20;;;;;;;6.27;3.37;;;19.50;84.40;;;;;;5024288;28;20439;-70
2023/09/15 08:24:48;;;;;;;3.60;3.00;;;19.50;84.30;;;;;;5049363;28;20946;-70
2023/09/15 08:27:15;;;;;;;3.00;2.80;;;19.50;84.30;;;;;;5039510;28;20546;-70
2023/09/15 08:29:41;;;;;;;6.70;3.20;;;19.60;84.60;;;;;;5034874;28;20506;-70
2023/09/15 08:32:13;;;;;;;3.37;3.07;;;19.60;84.60;;;;;;5054400;28;20546;-70
2023/09/15 08:34:44;;;;;;;3.40;3.10;;;19.50;84.50;;;;;;5030619;28;20539;-70
2023/09/15 08:37:18;;;;;;;4.00;3.70;;;19.60;84.60;;;;;;5007810;28;20519;-69
2023/09/15 08:39:45;;;;;;;3.90;3.20;;;19.60;84.60;;;;;;5030938;28;20457;-70
2023/09/15 08:42:24;;;;;;;3.73;3.37;;;19.60;84.60;;;;;;5033004;28;20489;-67
2023/09/15 08:44:51;;;;;;;3.40;3.10;;;19.50;84.50;;;;;;5028306;28;20503;-69
2023/09/15 08:47:20;;;;;;;3.57;3.27;;;19.60;84.60;;;;;;5028515;28;20423;-70
2023/09/15 08:49:49;;;;;;;3.30;3.10;;;19.60;84.70;;;;;;5041024;28;20510;-70
2023/09/15 08:52:21;;;;;;;3.23;3.00;;;19.60;84.80;;;;;;5036961;28;20934;-70
2023/09/15 08:54:52;;;;;;;4.33;4.00;;;19.60;85.70;;;;;;5036399;28;20435;-70
2023/09/15 08:57:20;;;;;;;5.70;3.50;;;19.70;85.10;;;;;;5059675;28;20513;-70
2023/09/15 08:59:53;;;;;;;3.43;2.97;;;19.70;85.10;;;;;;5047762;28;20528;-70
2023/09/15 09:02:18;;;;;;;4.20;3.90;;;19.70;85.10;;;;;;5059579;28;21282;-69
2023/09/15 09:04:45;;;;;;;5.13;4.00;;;19.70;85.10;;;;;;5047178;28;20417;-70
2023/09/15 09:07:14;;;;;;;3.33;3.03;;;19.70;85.20;;;;;;5045178;28;20289;-72
2023/09/15 09:09:46;;;;;;;3.40;3.10;;;19.70;85.20;;;;;;5078646;28;20497;-70
2023/09/15 09:12:13;;;;;;;3.33;3.03;;;19.70;85.20;;;;;;5035265;28;20450;-70
2023/09/15 09:14:47;;;;;;;4.00;3.70;;;19.70;85.40;;;;;;5055837;28;20431;-71
2023/09/15 09:17:23;;;;;;;3.73;2.97;;;19.70;85.30;;;;;;5043715;28;20449;-70
2023/09/15 09:19:50;;;;;;;4.07;3.33;;;19.80;85.30;;;;;;5064592;28;20468;-69
2023/09/15 09:22:18;;;;;;;4.83;3.70;;;19.80;85.30;;;;;;5063863;28;20430;-70
2023/09/15 09:24:55;;;;;;;4.43;3.20;;;19.80;85.20;;;;;;5041536;28;20461;-70
2023/09/15 09:27:22;;;;;;;3.50;3.20;;;19.80;85.40;;;;;;5042139;28;20437;-70
2023/09/15 09:29:54;;;;;;;3.13;2.83;;;19.90;85.40;;;;;;5062769;28;20468;-69
2023/09/15 09:32:20;;;;;;;3.23;2.93;;;19.90;85.20;;;;;;5063355;28;20450;-71
2023/09/15 09:34:49;;;;;;;6.00;3.20;;;19.90;85.30;;;;;;5023721;28;20464;-72
2023/09/15 09:37:17;;;;;;;3.67;2.90;;;20.00;85.40;;;;;;5038839;28;20510;-71
2023/09/15 09:39:46;;;;;;;3.67;3.33;;;20.00;85.40;;;;;;5012119;28;20506;-70
2023/09/15 09:42:14;;;;;;;4.20;3.27;;;20.00;85.40;;;;;;5061658;28;20441;-70
2023/09/15 09:44:41;;;;;;;3.37;3.10;;;20.00;85.40;;;;;;5029806;28;20435;-71
2023/09/15 09:47:09;;;;;;;3.23;2.90;;;20.00;85.60;;;;;;5015234;28;20432;-71
2023/09/15 09:49:38;;;;;;;3.23;3.03;;;20.10;85.60;;;;;;5029672;28;20439;-71
2023/09/15 09:52:04;;;;;;;7.30;3.53;;;20.10;85.40;;;;;;5035136;28;20418;-70
2023/09/15 09:54:35;;;;;;;4.93;2.90;;;20.10;85.40;;;;;;5037201;28;20444;-69
2023/09/15 09:57:04;;;;;;;3.30;3.00;;;20.20;85.50;;;;;;5017999;28;20490;-70
2023/09/15 09:59:30;;;;;;;3.47;3.17;;;20.20;85.50;;;;;;5036179;28;20450;-71
2023/09/15 10:01:56;;;;;;;3.73;3.40;;;20.20;85.50;;;;;;5031195;28;20894;-71
2023/09/15 10:04:22;;;;;;;3.60;3.40;;;20.30;85.50;;;;;;5033332;28;20541;-71
2023/09/15 10:06:49;;;;;;;3.40;3.20;;;20.30;85.40;;;;;;5043521;28;20475;-70
2023/09/15 10:09:15;;;;;;;3.53;3.20;;;20.30;85.30;;;;;;5024918;28;20515;-70
2023/09/15 10:11:43;;;;;;;3.50;3.20;;;20.30;85.40;;;;;;5018133;28;20455;-69
2023/09/15 10:14:10;;;;;;;3.40;3.10;;;20.30;85.30;;;;;;5047704;28;20552;-70
2023/09/15 10:16:36;;;;;;;3.13;2.87;;;20.40;85.40;;;;;;5010896;28;20523;-70
2023/09/15 10:19:05;;;;;;;3.63;3.20;;;20.40;85.40;;;;;;5043847;28;21466;-70
2023/09/15 10:21:35;;;;;;;3.60;3.10;;;20.40;85.30;;;;;;5025174;28;20508;-71
2023/09/15 10:24:08;;;;;;;3.87;3.57;;;20.50;85.30;;;;;;5041338;28;20518;-70
2023/09/15 10:26:38;;;;;;;4.43;3.37;;;20.50;85.30;;;;;;5058843;28;20453;-70
2023/09/15 10:29:05;;;;;;;3.40;3.10;;;20.60;85.60;;;;;;5070750;28;20993;-70
2023/09/15 10:31:34;;;;;;;4.80;3.13;;;20.60;85.40;;;;;;5037121;28;20918;-70
2023/09/15 10:34:02;;;;;;;3.43;3.13;;;20.60;85.40;;;;;;5057163;28;20804;-70
2023/09/15 10:36:28;;;;;;;3.43;3.13;;;20.60;85.30;;;;;;5031980;28;20438;-70
2023/09/15 10:38:57;;;;;;;3.40;2.93;;;20.60;85.40;;;;;;5044031;28;20429;-70
2023/09/15 10:41:29;;;;;;;3.50;3.20;;;20.70;85.50;;;;;;5059711;28;20478;-70
2023/09/15 10:43:56;;;;;;;3.50;3.20;;;20.70;85.30;;;;;;5039178;28;20534;-68
2023/09/15 10:46:37;;;;;;;4.57;4.20;;;20.70;85.30;;;;;;5041950;28;20439;-67
2023/09/15 10:49:20;;;;;;;3.70;3.30;;;20.80;85.40;;;;;;5016178;28;20459;-67
2023/09/15 10:52:00;;;;;;;3.47;3.17;;;20.80;85.10;;;;;;5054755;28;21121;-67
2023/09/15 10:54:30;;;;;;;4.67;3.80;;;20.90;85.30;;;;;;5013827;28;21412;-68
2023/09/15 10:56:58;;;;;;;4.70;3.47;;;20.80;85.40;;;;;;5048114;28;20463;-68
2023/09/15 10:59:26;;;;;;;3.47;3.17;;;20.90;85.20;;;;;;5023308;28;20444;-68
2023/09/15 11:01:54;;;;;;;3.57;3.27;;;20.90;85.00;;;;;;5036394;28;21074;-68
2023/09/15 11:04:21;;;;;;;3.70;3.40;;;20.90;85.20;;;;;;5031025;28;20443;-68
2023/09/15 11:06:52;;;;;;;4.07;3.73;;;21.00;85.10;;;;;;5047054;28;21013;-68
2023/09/15 11:09:21;;;;;;;3.97;3.60;;;21.00;85.10;;;;;;5022145;28;20535;-68
2023/09/15 11:11:52;;;;;;;3.90;3.50;;;21.00;85.20;;;;;;5033276;28;20548;-68
2023/09/15 11:14:22;;;;;;;3.20;3.00;;;21.10;85.30;;;;;;5041109;28;20499;-68
2023/09/15 11:16:53;;;;;;;5.13;3.27;;;21.10;85.30;;;;;;5052045;28;20484;-68
2023/09/15 11:19:30;;;;;;;3.70;3.40;;;21.10;85.30;;;;;;5021230;28;20457;-68
2023/09/15 11:22:00;;;;;;;3.30;3.00;;;21.20;85.40;;;;;;5022979;28;20482;-67
2023/09/15 11:24:29;;;;;;;3.53;3.20;;;21.20;85.30;;;;;;5059007;28;20812;-68
2023/09/15 11:26:55;;;;;;;3.87;3.57;;;21.20;85.30;;;;;;5042690;28;20791;-68
2023/09/15 11:29:30;;;;;;;3.40;3.10;;;21.20;85.20;;;;;;5034940;28;20499;-69
2023/09/15 11:31:59;;;;;;;3.07;2.80;;;21.30;85.20;;;;;;5052441;28;20427;-68
2023/09/15 11:34:31;;;;;;;3.93;3.37;;;21.30;84.90;;;;;;5028698;28;21193;-68
2023/09/15 11:37:00;;;;;;;3.83;3.43;;;21.30;84.70;;;;;;5031137;28;20432;-68
2023/09/15 11:39:29;;;;;;;3.27;3.00;;;21.40;84.80;;;;;;5051403;28;20461;-69
2023/09/15 11:42:01;;;;;;;3.87;3.40;;;21.40;85.00;;;;;;5046253;28;20557;-69
2023/09/15 11:44:30;;;;;;;3.40;3.10;;;21.40;84.90;;;;;;5047872;28;20440;-69
2023/09/15 11:47:06;;;;;;;4.33;3.93;;;21.50;85.10;;;;;;5067088;28;20911;-70
2023/09/15 11:49:34;;;;;;;3.43;3.13;;;21.50;85.00;;;;;;5024521;28;20479;-69
2023/09/15 11:52:06;;;;;;;3.40;3.20;;;21.50;84.90;;;;;;5026146;28;20466;-70
2023/09/15 11:54:32;;;;;;;3.63;3.43;;;21.60;85.00;;;;;;5028319;28;20506;-69
2023/09/15 11:56:59;;;;;;;3.37;3.07;;;21.60;84.70;;;;;;5067458;28;20947;-68
2023/09/15 11:59:28;;;;;;;3.70;3.40;;;21.60;84.60;;;;;;5034056;28;20439;-69
2023/09/15 12:01:58;;;;;;;3.37;3.17;;;21.70;84.50;;;;;;5041615;28;20476;-69
2023/09/15 12:04:29;;;;;;;3.47;3.20;;;21.70;84.40;;;;;;5041722;28;20461;-69
2023/09/15 12:06:55;;;;;;;3.40;3.10;;;21.70;84.60;;;;;;5046194;28;20440;-68
2023/09/15 12:09:23;;;;;;;3.63;3.10;;;21.70;84.40;;;;;;5048198;28;20449;-68
2023/09/15 12:11:52;;;;;;;3.40;3.20;;;21.80;84.50;;;;;;5075116;28;20465;-68
2023/09/15 12:14:20;;;;;;;3.20;3.00;;;21.80;84.40;;;;;;5056922;28;20511;-68
2023/09/15 12:16:46;;;;;;;3.40;3.10;;;21.80;84.10;;;;;;5048317;28;20515;-70
2023/09/15 12:19:18;;;;;;;3.67;3.00;;;21.90;84.30;;;;;;5064545;28;20455;-70
2023/09/15 12:22:02;;;;;;;4.27;3.97;;;21.90;84.20;;;;;;5032897;28;20568;-69
2023/09/15 12:24:30;;;;;;;4.43;3.20;;;21.90;84.30;;;;;;5029762;28;20836;-68
2023/09/15 12:26:59;;;;;;;5.10;3.40;;;22.00;84.10;;;;;;5059884;28;21017;-68
2023/09/15 12:29:25;;;;;;;3.13;2.93;;;22.00;84.00;;;;;;5055220;28;20460;-72
2023/09/15 12:31:56;;;;;;;6.40;3.60;;;22.00;83.80;;;;;;5068806;28;21483;-71
2023/09/15 12:34:24;;;;;;;5.37;3.50;;;22.10;83.80;;;;;;5071841;28;20433;-71
2023/09/15 12:36:55;;;;;;;3.07;2.87;;;22.10;83.80;;;;;;5059199;28;20520;-75
2023/09/15 12:39:21;;;;;;;3.87;3.10;;;22.10;83.60;;;;;;5043004;28;20456;-73
2023/09/15 12:42:05;;;;;;;3.90;3.20;;;22.20;84.00;;;;;;5058884;28;20681;-73
2023/09/15 12:44:33;;;;;;;4.70;3.20;;;22.20;83.60;;;;;;5062363;28;20439;-71
2023/09/15 12:46:59;;;;;;;3.83;3.40;;;22.20;83.50;;;;;;5038038;28;20454;-71
2023/09/15 12:49:28;;;;;;;3.53;3.30;;;22.30;83.70;;;;;;5039709;28;20923;-69
2023/09/15 12:51:54;;;;;;;4.67;3.20;;;22.30;83.50;;;;;;5053580;28;20442;-70
2023/09/15 12:54:22;;;;;;;3.80;3.43;;;22.30;83.60;;;;;;5051412;28;20437;-69
2023/09/15 12:56:53;;;;;;;4.20;3.90;;;22.30;83.20;;;;;;5065826;28;20982;-69